createdAt,value
2022-09-16T00:04:49.779Z,99982.72
2022-09-16T00:09:53.146Z,99994.63
2022-09-16T00:14:58.218Z,99991.44
2022-09-16T00:20:02.046Z,99983.91
2022-09-16T00:25:06.094Z,99993.22
2022-09-16T00:30:12.080Z,99988.16
2022-09-16T00:35:15.519Z,99983.16
2022-09-16T00:40:19.090Z,99985.91
2022-09-16T00:45:25.084Z,99993.31
2022-09-16T00:50:36.106Z,99994.03
2022-09-16T00:55:40.108Z,99995.56
2022-09-16T01:00:44.943Z,99996.50
2022-09-16T01:06:07.856Z,99991.47
2022-09-16T01:11:11.197Z,99986.16
2022-09-16T01:16:22.537Z,99987.28
2022-09-16T01:21:35.311Z,99996.06
2022-09-16T01:26:55.489Z,99991.53
2022-09-16T01:32:06.012Z,99990.84
2022-09-16T01:37:15.125Z,99996.19
2022-09-16T01:42:23.798Z,99990.63
2022-09-16T01:47:35.110Z,99990.72
2022-09-16T01:52:44.399Z,99988.25
2022-09-16T01:57:52.423Z,99993.56
2022-09-16T02:03:00.022Z,99992.69
2022-09-16T02:08:07.063Z,99982.84
2022-09-16T02:13:16.094Z,99998.47
2022-09-16T02:18:23.686Z,99988.16
2022-09-16T02:23:33.172Z,99985.97
2022-09-16T02:28:40.528Z,99979.31
2022-09-16T02:33:48.009Z,99967.72
2022-09-16T02:38:54.435Z,99971.56
2022-09-16T02:43:57.961Z,99980.84
2022-09-16T02:49:10.850Z,99962.06
2022-09-16T02:54:20.920Z,99970.41
2022-09-16T02:59:25.356Z,99971.84
2022-09-16T03:04:31.015Z,99969.25
2022-09-16T03:09:36.108Z,99965.28
2022-09-16T03:14:58.378Z,99971.31
2022-09-16T03:20:10.970Z,99973.53
2022-09-16T03:25:22.962Z,99974.38
2022-09-16T03:30:26.530Z,99972.91
2022-09-16T03:35:33.136Z,99975.47
2022-09-16T03:40:37.298Z,99978.44
2022-09-16T03:45:42.667Z,99975.16
2022-09-16T03:50:47.542Z,99972.88
2022-09-16T03:55:50.979Z,99972.38
2022-09-16T04:00:54.349Z,99959.97
2022-09-16T04:05:59.550Z,99959.81
2022-09-16T04:11:05.352Z,99959.22
2022-09-16T04:16:08.792Z,99960.78
2022-09-16T04:21:13.651Z,99962.25
2022-09-16T04:26:17.929Z,99942.53
2022-09-16T04:31:21.642Z,99948.09
2022-09-16T04:36:26.466Z,99938.97
2022-09-16T04:41:29.954Z,99937.69
2022-09-16T04:46:33.997Z,99944.41
2022-09-16T04:51:38.799Z,99943.94
2022-09-16T04:56:42.203Z,99949.09
2022-09-16T05:01:45.903Z,99949.59
2022-09-16T05:06:50.783Z,99941.34
2022-09-16T05:11:54.129Z,99948.66
2022-09-16T05:16:57.494Z,99956.75
2022-09-16T05:22:06.910Z,99955.31
2022-09-16T05:27:10.311Z,99965.00
2022-09-16T05:32:13.782Z,99953.66
2022-09-16T05:37:18.607Z,99949.06
2022-09-16T05:42:21.971Z,99957.75
2022-09-16T05:47:25.396Z,99960.41
2022-09-16T05:52:30.151Z,99952.03
2022-09-16T05:57:33.557Z,99955.28
2022-09-16T06:02:37.167Z,99965.59
2022-09-16T06:07:42.063Z,99959.50
2022-09-16T06:12:45.451Z,99968.41
2022-09-16T06:17:48.890Z,99957.59
2022-09-16T06:22:53.728Z,99945.28
2022-09-16T06:27:57.082Z,99943.38
2022-09-16T06:33:00.501Z,99942.13
2022-09-16T06:38:05.344Z,99952.34
2022-09-16T06:43:08.767Z,99956.31
2022-09-16T06:48:12.422Z,99951.44
2022-09-16T06:53:17.288Z,99952.06
2022-09-16T06:58:20.690Z,99955.75
2022-09-16T07:03:24.155Z,99948.81
2022-09-16T07:08:29.145Z,99948.94
2022-09-16T07:13:33.119Z,99948.69
2022-09-16T07:18:36.606Z,99955.44
2022-09-16T07:23:42.160Z,99956.06
2022-09-16T07:28:47.465Z,99953.19
2022-09-16T07:33:51.646Z,99953.72
2022-09-16T07:38:58.593Z,99952.38
2022-09-16T07:44:02.857Z,99954.88
2022-09-16T07:49:08.471Z,99959.22
2022-09-16T07:54:15.447Z,99952.81
2022-09-16T07:59:20.170Z,99945.31
2022-09-16T08:04:23.831Z,99940.44
2022-09-16T08:09:48.595Z,99954.38
2022-09-16T08:14:52.076Z,99954.41
2022-09-16T08:19:55.553Z,99951.41
2022-09-16T08:25:00.377Z,99951.75
2022-09-16T08:30:04.509Z,99961.91
2022-09-16T08:35:09.024Z,99965.53
2022-09-16T08:45:28.838Z,99951.06
2022-09-16T08:50:34.976Z,99950.94
2022-09-16T08:55:42.050Z,99940.06
2022-09-16T09:00:48.058Z,99944.66
2022-09-16T09:05:53.684Z,99953.91
2022-09-16T09:11:02.855Z,99960.03
2022-09-16T09:16:14.574Z,99952.34
2022-09-16T09:21:26.192Z,99954.69
2022-09-16T09:26:37.797Z,99933.91
2022-09-16T09:31:46.841Z,99953.81
2022-09-16T09:37:00.894Z,99938.94
2022-09-16T09:42:12.254Z,99928.97
2022-09-16T09:47:20.332Z,99930.06
2022-09-16T09:52:27.612Z,99936.50
2022-09-16T09:57:38.027Z,99936.84
2022-09-16T10:02:48.815Z,99922.66
2022-09-16T10:07:54.939Z,99919.91
2022-09-16T10:13:09.787Z,99910.16
2022-09-16T10:18:14.868Z,99929.38
2022-09-16T10:23:29.045Z,99926.09
2022-09-16T10:28:35.138Z,99920.63
2022-09-16T10:33:44.111Z,99914.63
2022-09-16T10:38:50.686Z,99902.09
2022-09-16T10:43:58.745Z,99890.28
2022-09-16T10:49:10.893Z,99871.69
2022-09-16T10:54:25.591Z,99887.00
2022-09-16T10:59:30.395Z,99877.72
2022-09-16T11:04:55.456Z,99870.88
2022-09-16T11:10:05.573Z,99863.75
2022-09-16T11:15:20.693Z,99879.94
2022-09-16T11:20:56.053Z,99872.00
2022-09-16T11:26:04.464Z,99852.38
2022-09-16T11:31:16.407Z,99853.47
2022-09-16T11:36:36.757Z,99875.53
2022-09-16T11:41:43.163Z,99862.38
2022-09-16T11:46:56.944Z,99853.63
2022-09-16T11:52:13.783Z,99835.97
2022-09-16T11:57:20.108Z,99853.28
2022-09-16T12:02:27.634Z,99895.84
2022-09-16T12:07:35.165Z,99904.41
2022-09-16T12:12:41.202Z,99866.50
2022-09-16T12:17:53.606Z,99866.16
2022-09-16T12:23:02.059Z,99856.69
2022-09-16T12:28:13.946Z,99835.72
2022-09-16T12:33:23.856Z,99837.09
2022-09-16T12:38:27.366Z,99822.53
2022-09-16T12:43:48.491Z,99807.06
2022-09-16T12:49:21.118Z,99816.44
2022-09-16T12:55:04.100Z,99853.97
2022-09-16T13:00:13.662Z,99867.84
2022-09-16T13:05:22.938Z,99864.81
2022-09-16T13:10:53.818Z,99876.03
2022-09-16T13:15:57.889Z,99877.94
2022-09-16T13:21:07.563Z,99879.53
2022-09-16T13:26:11.167Z,99881.69
2022-09-16T13:31:30.952Z,99879.66
2022-09-16T13:36:38.213Z,99870.19
2022-09-16T13:41:43.774Z,99853.78
2022-09-16T13:46:47.405Z,99852.63
2022-09-16T13:51:53.475Z,99857.03
2022-09-16T13:57:21.536Z,99849.66
2022-09-16T14:02:30.836Z,99854.09
2022-09-16T14:07:44.306Z,99851.66
2022-09-16T14:12:56.314Z,99839.78
2022-09-16T14:18:02.037Z,99831.59
2022-09-16T14:23:17.429Z,99822.78
2022-09-16T14:28:31.742Z,99803.66
2022-09-16T14:33:38.635Z,99800.47
2022-09-16T14:38:46.606Z,99821.34
2022-09-16T14:43:52.916Z,99818.94
2022-09-16T14:48:56.435Z,99806.03
2022-09-16T14:54:12.328Z,99800.06
2022-09-16T14:59:17.824Z,99797.50
2022-09-16T15:04:26.015Z,99801.13
2022-09-16T15:09:34.663Z,99793.03
2022-09-16T15:14:39.755Z,99787.88
2022-09-16T15:19:43.324Z,99788.31
2022-09-16T15:24:48.342Z,99794.91
2022-09-16T15:29:59.130Z,99776.47
2022-09-16T15:35:14.101Z,99791.84
2022-09-16T15:40:38.993Z,99772.56
2022-09-16T15:45:44.516Z,99764.75
2022-09-16T15:50:51.296Z,99772.59
2022-09-16T15:55:58.920Z,99769.22
2022-09-16T16:01:06.651Z,99774.94
2022-09-16T16:06:10.081Z,99758.03
2022-09-16T16:11:15.011Z,99763.84
2022-09-16T16:16:20.291Z,99762.47
2022-09-16T16:21:23.734Z,99758.59
2022-09-16T16:26:27.130Z,99760.63
2022-09-16T16:31:32.563Z,99749.97
2022-09-16T16:36:35.997Z,99772.81
2022-09-16T16:41:39.431Z,99753.56
2022-09-16T16:46:44.293Z,99752.63
2022-09-16T16:51:49.884Z,99754.44
2022-09-16T16:56:53.671Z,99748.84
2022-09-16T17:01:59.167Z,99750.19
2022-09-16T17:07:24.515Z,99756.13
2022-09-16T17:12:26.339Z,99768.19
2022-09-16T17:17:31.942Z,99759.88
2022-09-16T17:22:35.420Z,99754.69
2022-09-16T17:27:38.829Z,99752.19
2022-09-16T17:32:43.627Z,99767.84
2022-09-16T17:37:47.072Z,99769.25
2022-09-16T17:42:52.150Z,99801.84
2022-09-16T17:47:58.955Z,99805.38
2022-09-16T17:53:02.353Z,99791.25
2022-09-16T17:58:05.775Z,99787.91
2022-09-16T18:03:11.032Z,99786.50
2022-09-16T18:08:14.604Z,99788.19
2022-09-16T18:13:17.963Z,99786.59
2022-09-16T18:18:23.364Z,99784.56
2022-09-16T18:23:26.983Z,99785.16
2022-09-16T18:28:35.703Z,99788.56
2022-09-16T18:33:47.115Z,99806.09
2022-09-16T18:38:51.567Z,99805.88
2022-09-16T18:43:56.776Z,99805.59
2022-09-16T18:49:02.115Z,99814.19
2022-09-16T18:54:06.969Z,99813.50
2022-09-16T18:59:21.478Z,99834.53
2022-09-16T19:04:29.486Z,99833.50
2022-09-16T19:09:32.931Z,99822.19
2022-09-16T19:14:36.483Z,99826.72
2022-09-16T19:19:41.341Z,99814.84
2022-09-16T19:24:44.795Z,99808.03
2022-09-16T19:29:48.198Z,99813.38
2022-09-16T19:34:53.434Z,99796.19
2022-09-16T19:39:57.058Z,99814.38
2022-09-16T19:45:00.685Z,99814.94
2022-09-16T19:50:07.425Z,99817.75
2022-09-16T19:55:11.368Z,99814.94
2022-09-16T20:00:16.867Z,99810.28
2022-09-16T20:05:22.000Z,99824.16
2022-09-16T20:10:25.422Z,99833.31
2022-09-16T20:15:28.868Z,99834.44
2022-09-16T20:20:33.762Z,99829.94
2022-09-16T20:25:37.863Z,99833.09
2022-09-16T20:30:41.261Z,99843.59
2022-09-16T20:35:46.085Z,99846.03
2022-09-16T20:40:49.590Z,99862.16
2022-09-16T20:45:53.616Z,99860.41
2022-09-16T20:50:58.561Z,99867.53
2022-09-16T20:56:03.083Z,99872.72
2022-09-16T21:01:07.488Z,99863.22
2022-09-16T21:06:14.515Z,99865.50
2022-09-16T21:11:20.347Z,99877.59
2022-09-16T21:16:24.537Z,99870.81
2022-09-16T21:21:30.023Z,99879.66
2022-09-16T21:26:34.819Z,99887.25
2022-09-16T21:31:39.913Z,99898.78
2022-09-16T21:36:45.381Z,99896.00
2022-09-16T21:41:49.142Z,99895.94
2022-09-16T21:46:52.649Z,99901.97
2022-09-16T21:51:58.741Z,99897.91
2022-09-16T21:57:02.934Z,99889.16
2022-09-16T22:02:06.411Z,99901.00
2022-09-16T22:07:11.279Z,99905.22
2022-09-16T22:12:14.967Z,99900.63
2022-09-16T22:17:18.435Z,99911.28
2022-09-16T22:22:23.263Z,99900.09
2022-09-16T22:27:28.926Z,99904.28
2022-09-16T22:32:32.389Z,99903.97
2022-09-16T22:37:37.278Z,99915.47
2022-09-16T22:42:40.754Z,99910.13
2022-09-16T22:47:44.181Z,99909.53
2022-09-16T22:52:49.021Z,99912.19
2022-09-16T22:57:52.541Z,99918.38
2022-09-16T23:02:56.065Z,99910.69
2022-09-16T23:08:00.864Z,99902.59
2022-09-16T23:13:04.346Z,99919.63
2022-09-16T23:18:07.792Z,99904.34
2022-09-16T23:23:12.654Z,99915.53
2022-09-16T23:28:16.027Z,99904.44
2022-09-16T23:33:19.492Z,99912.72
2022-09-16T23:38:24.297Z,99911.91
2022-09-16T23:43:28.231Z,99919.09
2022-09-16T23:48:32.111Z,99911.41
2022-09-16T23:53:37.361Z,99921.31
2022-09-16T23:58:42.048Z,99909.22
